sensor_id;sensor_type;location;lat;lon;timestamp;P1;durP1;ratioP1;P2;durP2;ratioP2
69410;SDS011;56604;48.652;9.194;2023-05-10T00:00:26;2.33;;;2.10;;
69410;SDS011;56604;48.652;9.194;2023-05-10T00:02:51;7.77;;;2.23;;
69410;SDS011;56604;48.652;9.194;2023-05-10T00:05:17;2.10;;;2.10;;
69410;SDS011;56604;48.652;9.194;2023-05-10T00:07:43;2.20;;;2.20;;
69410;SDS011;56604;48.652;9.194;2023-05-10T00:10:09;2.00;;;1.90;;
69410;SDS011;56604;48.652;9.194;2023-05-10T00:12:36;2.17;;;2.07;;
69410;SDS011;56604;48.652;9.194;2023-05-10T00:15:01;2.00;;;2.00;;
69410;SDS011;56604;48.652;9.194;2023-05-10T00:17:27;2.03;;;2.03;;
69410;SDS011;56604;48.652;9.194;2023-05-10T00:19:53;3.37;;;1.73;;
69410;SDS011;56604;48.652;9.194;2023-05-10T00:22:19;3.83;;;2.00;;
69410;SDS011;56604;48.652;9.194;2023-05-10T00:24:44;1.70;;;1.70;;
69410;SDS011;56604;48.652;9.194;2023-05-10T00:27:09;4.13;;;1.93;;
69410;SDS011;56604;48.652;9.194;2023-05-10T00:29:35;1.50;;;1.50;;
69410;SDS011;56604;48.652;9.194;2023-05-10T00:32:00;1.80;;;1.70;;
69410;SDS011;56604;48.652;9.194;2023-05-10T00:34:25;8.27;;;1.50;;
69410;SDS011;56604;48.652;9.194;2023-05-10T00:36:51;1.40;;;1.40;;
69410;SDS011;56604;48.652;9.194;2023-05-10T00:39:16;1.10;;;1.10;;
69410;SDS011;56604;48.652;9.194;2023-05-10T00:41:41;1.30;;;1.30;;
69410;SDS011;56604;48.652;9.194;2023-05-10T00:44:07;4.23;;;1.40;;
69410;SDS011;56604;48.652;9.194;2023-05-10T00:46:32;1.40;;;1.40;;
69410;SDS011;56604;48.652;9.194;2023-05-10T00:48:57;1.07;;;1.07;;
69410;SDS011;56604;48.652;9.194;2023-05-10T00:51:23;1.00;;;1.00;;
69410;SDS011;56604;48.652;9.194;2023-05-10T00:53:49;0.90;;;0.90;;
69410;SDS011;56604;48.652;9.194;2023-05-10T00:56:15;1.10;;;1.00;;
69410;SDS011;56604;48.652;9.194;2023-05-10T00:58:41;5.00;;;1.03;;
69410;SDS011;56604;48.652;9.194;2023-05-10T01:01:06;1.10;;;1.00;;
69410;SDS011;56604;48.652;9.194;2023-05-10T01:03:32;8.73;;;1.07;;
69410;SDS011;56604;48.652;9.194;2023-05-10T01:05:58;1.00;;;1.00;;
69410;SDS011;56604;48.652;9.194;2023-05-10T01:08:23;0.90;;;0.90;;
69410;SDS011;56604;48.652;9.194;2023-05-10T01:10:50;3.30;;;1.20;;
69410;SDS011;56604;48.652;9.194;2023-05-10T01:13:18;0.80;;;0.80;;
69410;SDS011;56604;48.652;9.194;2023-05-10T01:15:54;0.67;;;0.67;;
69410;SDS011;56604;48.652;9.194;2023-05-10T01:18:21;1.33;;;0.80;;
69410;SDS011;56604;48.652;9.194;2023-05-10T01:20:47;13.40;;;1.00;;
69410;SDS011;56604;48.652;9.194;2023-05-10T01:31:59;2.73;;;0.87;;
69410;SDS011;56604;48.652;9.194;2023-05-10T01:34:35;0.83;;;0.83;;
69410;SDS011;56604;48.652;9.194;2023-05-10T01:37:09;1.43;;;0.70;;
69410;SDS011;56604;48.652;9.194;2023-05-10T01:39:46;4.03;;;0.73;;
69410;SDS011;56604;48.652;9.194;2023-05-10T01:42:20;0.97;;;0.77;;
69410;SDS011;56604;48.652;9.194;2023-05-10T01:44:49;1.40;;;0.80;;
69410;SDS011;56604;48.652;9.194;2023-05-10T01:47:35;0.60;;;0.57;;
69410;SDS011;56604;48.652;9.194;2023-05-10T01:50:06;0.70;;;0.70;;
69410;SDS011;56604;48.652;9.194;2023-05-10T01:52:41;8.83;;;0.80;;
69410;SDS011;56604;48.652;9.194;2023-05-10T01:55:09;7.03;;;1.23;;
69410;SDS011;56604;48.652;9.194;2023-05-10T01:57:40;2.73;;;0.70;;
69410;SDS011;56604;48.652;9.194;2023-05-10T02:00:09;0.60;;;0.60;;
69410;SDS011;56604;48.652;9.194;2023-05-10T02:02:37;0.97;;;0.80;;
69410;SDS011;56604;48.652;9.194;2023-05-10T02:05:04;0.80;;;0.67;;
69410;SDS011;56604;48.652;9.194;2023-05-10T02:07:31;3.20;;;0.70;;
69410;SDS011;56604;48.652;9.194;2023-05-10T02:10:00;0.70;;;0.70;;
69410;SDS011;56604;48.652;9.194;2023-05-10T02:12:27;1.17;;;0.60;;
69410;SDS011;56604;48.652;9.194;2023-05-10T02:14:55;0.87;;;0.70;;
69410;SDS011;56604;48.652;9.194;2023-05-10T02:17:22;2.00;;;0.50;;
69410;SDS011;56604;48.652;9.194;2023-05-10T02:19:49;0.50;;;0.50;;
69410;SDS011;56604;48.652;9.194;2023-05-10T02:22:18;0.60;;;0.60;;
69410;SDS011;56604;48.652;9.194;2023-05-10T02:24:45;0.60;;;0.60;;
69410;SDS011;56604;48.652;9.194;2023-05-10T02:27:11;8.83;;;0.63;;
69410;SDS011;56604;48.652;9.194;2023-05-10T02:29:39;0.80;;;0.80;;
69410;SDS011;56604;48.652;9.194;2023-05-10T02:32:04;8.53;;;0.70;;
69410;SDS011;56604;48.652;9.194;2023-05-10T02:34:31;0.70;;;0.70;;
69410;SDS011;56604;48.652;9.194;2023-05-10T02:36:57;0.60;;;0.60;;
69410;SDS011;56604;48.652;9.194;2023-05-10T02:39:24;3.13;;;0.80;;
69410;SDS011;56604;48.652;9.194;2023-05-10T02:41:53;0.77;;;0.77;;
69410;SDS011;56604;48.652;9.194;2023-05-10T02:44:20;0.70;;;0.70;;
69410;SDS011;56604;48.652;9.194;2023-05-10T02:46:47;1.17;;;0.83;;
69410;SDS011;56604;48.652;9.194;2023-05-10T02:49:12;1.43;;;0.83;;
69410;SDS011;56604;48.652;9.194;2023-05-10T02:51:40;4.20;;;0.90;;
69410;SDS011;56604;48.652;9.194;2023-05-10T02:54:15;0.73;;;0.73;;
69410;SDS011;56604;48.652;9.194;2023-05-10T02:56:47;4.73;;;0.80;;
69410;SDS011;56604;48.652;9.194;2023-05-10T02:59:18;0.90;;;0.63;;
69410;SDS011;56604;48.652;9.194;2023-05-10T03:01:44;1.03;;;0.90;;
69410;SDS011;56604;48.652;9.194;2023-05-10T03:04:09;2.30;;;1.10;;
69410;SDS011;56604;48.652;9.194;2023-05-10T03:06:34;0.90;;;0.90;;
69410;SDS011;56604;48.652;9.194;2023-05-10T03:09:00;2.20;;;0.93;;
69410;SDS011;56604;48.652;9.194;2023-05-10T03:14:40;4.40;;;1.00;;
69410;SDS011;56604;48.652;9.194;2023-05-10T03:20:03;0.90;;;0.90;;
69410;SDS011;56604;48.652;9.194;2023-05-10T03:22:39;0.90;;;0.90;;
69410;SDS011;56604;48.652;9.194;2023-05-10T03:25:10;0.70;;;0.70;;
69410;SDS011;56604;48.652;9.194;2023-05-10T03:27:39;1.00;;;1.00;;
69410;SDS011;56604;48.652;9.194;2023-05-10T03:30:07;1.30;;;1.03;;
69410;SDS011;56604;48.652;9.194;2023-05-10T03:32:35;2.23;;;1.20;;
69410;SDS011;56604;48.652;9.194;2023-05-10T03:35:01;3.70;;;1.17;;
69410;SDS011;56604;48.652;9.194;2023-05-10T03:37:31;0.93;;;0.93;;
69410;SDS011;56604;48.652;9.194;2023-05-10T03:39:56;1.07;;;1.00;;
69410;SDS011;56604;48.652;9.194;2023-05-10T03:42:22;0.80;;;0.80;;
69410;SDS011;56604;48.652;9.194;2023-05-10T03:44:47;3.60;;;1.00;;
69410;SDS011;56604;48.652;9.194;2023-05-10T03:47:14;1.27;;;1.13;;
69410;SDS011;56604;48.652;9.194;2023-05-10T03:49:39;3.50;;;1.03;;
69410;SDS011;56604;48.652;9.194;2023-05-10T03:52:04;3.43;;;1.20;;
69410;SDS011;56604;48.652;9.194;2023-05-10T03:54:30;2.00;;;1.20;;
69410;SDS011;56604;48.652;9.194;2023-05-10T03:56:55;1.40;;;1.30;;
69410;SDS011;56604;48.652;9.194;2023-05-10T03:59:20;1.00;;;1.00;;
69410;SDS011;56604;48.652;9.194;2023-05-10T04:01:46;1.30;;;1.30;;
69410;SDS011;56604;48.652;9.194;2023-05-10T04:04:11;4.13;;;1.00;;
69410;SDS011;56604;48.652;9.194;2023-05-10T04:06:37;3.13;;;0.90;;
69410;SDS011;56604;48.652;9.194;2023-05-10T04:09:02;4.93;;;1.20;;
69410;SDS011;56604;48.652;9.194;2023-05-10T04:11:29;1.27;;;1.07;;
69410;SDS011;56604;48.652;9.194;2023-05-10T04:13:54;3.13;;;1.10;;
69410;SDS011;56604;48.652;9.194;2023-05-10T04:16:20;3.20;;;1.20;;
69410;SDS011;56604;48.652;9.194;2023-05-10T04:18:45;3.33;;;1.10;;
69410;SDS011;56604;48.652;9.194;2023-05-10T04:21:13;1.23;;;1.10;;
69410;SDS011;56604;48.652;9.194;2023-05-10T04:23:39;1.37;;;1.37;;
69410;SDS011;56604;48.652;9.194;2023-05-10T04:26:05;1.43;;;1.33;;
69410;SDS011;56604;48.652;9.194;2023-05-10T04:28:31;2.77;;;1.30;;
69410;SDS011;56604;48.652;9.194;2023-05-10T04:31:03;10.10;;;1.43;;
69410;SDS011;56604;48.652;9.194;2023-05-10T04:33:29;2.70;;;1.10;;
69410;SDS011;56604;48.652;9.194;2023-05-10T04:35:55;2.97;;;0.90;;
69410;SDS011;56604;48.652;9.194;2023-05-10T04:38:20;1.40;;;1.30;;
69410;SDS011;56604;48.652;9.194;2023-05-10T04:40:45;4.40;;;1.50;;
69410;SDS011;56604;48.652;9.194;2023-05-10T04:43:11;7.90;;;1.20;;
69410;SDS011;56604;48.652;9.194;2023-05-10T04:45:36;1.10;;;1.10;;
69410;SDS011;56604;48.652;9.194;2023-05-10T04:48:01;1.20;;;1.20;;
69410;SDS011;56604;48.652;9.194;2023-05-10T04:50:27;0.90;;;0.90;;
69410;SDS011;56604;48.652;9.194;2023-05-10T04:52:52;1.00;;;1.00;;
69410;SDS011;56604;48.652;9.194;2023-05-10T04:55:17;1.27;;;1.20;;
69410;SDS011;56604;48.652;9.194;2023-05-10T04:57:43;1.17;;;1.17;;
69410;SDS011;56604;48.652;9.194;2023-05-10T05:00:08;1.30;;;1.20;;
69410;SDS011;56604;48.652;9.194;2023-05-10T05:02:34;1.60;;;1.30;;
69410;SDS011;56604;48.652;9.194;2023-05-10T05:04:59;1.20;;;1.10;;
69410;SDS011;56604;48.652;9.194;2023-05-10T05:07:24;2.60;;;1.30;;
69410;SDS011;56604;48.652;9.194;2023-05-10T05:09:50;1.03;;;1.03;;
69410;SDS011;56604;48.652;9.194;2023-05-10T05:12:15;1.20;;;1.20;;
69410;SDS011;56604;48.652;9.194;2023-05-10T05:14:40;1.33;;;1.23;;
69410;SDS011;56604;48.652;9.194;2023-05-10T05:17:06;1.47;;;1.37;;
69410;SDS011;56604;48.652;9.194;2023-05-10T05:19:32;3.33;;;1.30;;
69410;SDS011;56604;48.652;9.194;2023-05-10T05:21:57;1.93;;;1.20;;
69410;SDS011;56604;48.652;9.194;2023-05-10T05:24:22;1.00;;;1.00;;
69410;SDS011;56604;48.652;9.194;2023-05-10T05:26:48;1.30;;;1.30;;
69410;SDS011;56604;48.652;9.194;2023-05-10T05:29:13;1.00;;;1.00;;
69410;SDS011;56604;48.652;9.194;2023-05-10T05:31:39;9.10;;;1.37;;
69410;SDS011;56604;48.652;9.194;2023-05-10T05:34:04;1.43;;;1.10;;
69410;SDS011;56604;48.652;9.194;2023-05-10T05:36:29;1.00;;;1.00;;
69410;SDS011;56604;48.652;9.194;2023-05-10T05:38:56;10.60;;;1.13;;
69410;SDS011;56604;48.652;9.194;2023-05-10T05:41:22;4.40;;;1.77;;
69410;SDS011;56604;48.652;9.194;2023-05-10T05:43:48;1.57;;;1.20;;
69410;SDS011;56604;48.652;9.194;2023-05-10T05:46:14;2.87;;;1.23;;
69410;SDS011;56604;48.652;9.194;2023-05-10T05:48:40;0.93;;;0.93;;
69410;SDS011;56604;48.652;9.194;2023-05-10T05:51:07;1.07;;;1.07;;
69410;SDS011;56604;48.652;9.194;2023-05-10T05:53:33;1.47;;;1.23;;
69410;SDS011;56604;48.652;9.194;2023-05-10T05:55:58;1.80;;;1.10;;
69410;SDS011;56604;48.652;9.194;2023-05-10T05:58:24;1.40;;;1.30;;
69410;SDS011;56604;48.652;9.194;2023-05-10T06:00:50;1.70;;;1.60;;
69410;SDS011;56604;48.652;9.194;2023-05-10T06:03:17;3.83;;;1.13;;
69410;SDS011;56604;48.652;9.194;2023-05-10T06:05:42;2.97;;;1.63;;
69410;SDS011;56604;48.652;9.194;2023-05-10T06:08:08;1.40;;;1.30;;
69410;SDS011;56604;48.652;9.194;2023-05-10T06:10:33;1.00;;;1.00;;
69410;SDS011;56604;48.652;9.194;2023-05-10T06:12:59;2.30;;;1.27;;
69410;SDS011;56604;48.652;9.194;2023-05-10T06:15:24;1.07;;;1.07;;
69410;SDS011;56604;48.652;9.194;2023-05-10T06:17:50;2.70;;;1.13;;
69410;SDS011;56604;48.652;9.194;2023-05-10T06:20:15;1.30;;;1.20;;
69410;SDS011;56604;48.652;9.194;2023-05-10T06:22:41;2.53;;;1.10;;
69410;SDS011;56604;48.652;9.194;2023-05-10T06:25:07;2.67;;;1.27;;
69410;SDS011;56604;48.652;9.194;2023-05-10T06:27:32;1.23;;;1.23;;
69410;SDS011;56604;48.652;9.194;2023-05-10T06:29:58;1.20;;;1.20;;
69410;SDS011;56604;48.652;9.194;2023-05-10T06:32:23;1.27;;;1.10;;
69410;SDS011;56604;48.652;9.194;2023-05-10T06:34:48;1.03;;;1.03;;
69410;SDS011;56604;48.652;9.194;2023-05-10T06:37:14;1.30;;;1.20;;
69410;SDS011;56604;48.652;9.194;2023-05-10T06:39:39;1.20;;;1.20;;
69410;SDS011;56604;48.652;9.194;2023-05-10T06:42:04;1.00;;;1.00;;
69410;SDS011;56604;48.652;9.194;2023-05-10T06:44:30;2.10;;;1.20;;
69410;SDS011;56604;48.652;9.194;2023-05-10T06:46:55;1.23;;;1.13;;
69410;SDS011;56604;48.652;9.194;2023-05-10T06:49:21;1.00;;;1.00;;
69410;SDS011;56604;48.652;9.194;2023-05-10T06:51:46;2.00;;;1.40;;
69410;SDS011;56604;48.652;9.194;2023-05-10T06:54:11;1.10;;;1.10;;
69410;SDS011;56604;48.652;9.194;2023-05-10T06:56:37;2.10;;;1.33;;
69410;SDS011;56604;48.652;9.194;2023-05-10T06:59:02;1.30;;;1.23;;
69410;SDS011;56604;48.652;9.194;2023-05-10T07:01:27;1.17;;;0.90;;
69410;SDS011;56604;48.652;9.194;2023-05-10T07:03:53;1.63;;;1.33;;
69410;SDS011;56604;48.652;9.194;2023-05-10T07:06:18;1.20;;;1.10;;
69410;SDS011;56604;48.652;9.194;2023-05-10T07:08:44;1.13;;;1.13;;
69410;SDS011;56604;48.652;9.194;2023-05-10T07:11:09;1.00;;;1.00;;
69410;SDS011;56604;48.652;9.194;2023-05-10T07:13:37;3.37;;;1.30;;
69410;SDS011;56604;48.652;9.194;2023-05-10T07:16:04;2.20;;;1.10;;
69410;SDS011;56604;48.652;9.194;2023-05-10T07:18:31;1.20;;;1.10;;
69410;SDS011;56604;48.652;9.194;2023-05-10T07:20:57;3.07;;;1.10;;
69410;SDS011;56604;48.652;9.194;2023-05-10T07:23:22;1.10;;;1.10;;
69410;SDS011;56604;48.652;9.194;2023-05-10T07:25:48;1.10;;;1.10;;
69410;SDS011;56604;48.652;9.194;2023-05-10T07:28:14;1.73;;;1.20;;
69410;SDS011;56604;48.652;9.194;2023-05-10T07:30:41;1.33;;;1.10;;
69410;SDS011;56604;48.652;9.194;2023-05-10T07:33:07;1.17;;;0.90;;
69410;SDS011;56604;48.652;9.194;2023-05-10T07:35:34;1.00;;;1.00;;
69410;SDS011;56604;48.652;9.194;2023-05-10T07:38:00;2.00;;;1.73;;
69410;SDS011;56604;48.652;9.194;2023-05-10T07:40:25;1.20;;;1.20;;
69410;SDS011;56604;48.652;9.194;2023-05-10T07:42:51;2.97;;;1.47;;
69410;SDS011;56604;48.652;9.194;2023-05-10T07:45:16;1.20;;;1.20;;
69410;SDS011;56604;48.652;9.194;2023-05-10T07:47:42;1.07;;;0.97;;
69410;SDS011;56604;48.652;9.194;2023-05-10T07:50:07;1.37;;;1.27;;
69410;SDS011;56604;48.652;9.194;2023-05-10T07:52:33;1.90;;;1.10;;
69410;SDS011;56604;48.652;9.194;2023-05-10T07:54:58;1.23;;;1.00;;
69410;SDS011;56604;48.652;9.194;2023-05-10T07:57:24;1.53;;;1.17;;
69410;SDS011;56604;48.652;9.194;2023-05-10T07:59:49;1.00;;;1.00;;
69410;SDS011;56604;48.652;9.194;2023-05-10T08:02:14;5.60;;;1.10;;
69410;SDS011;56604;48.652;9.194;2023-05-10T08:04:41;1.53;;;0.87;;
69410;SDS011;56604;48.652;9.194;2023-05-10T08:07:06;2.60;;;1.10;;
69410;SDS011;56604;48.652;9.194;2023-05-10T08:09:32;2.83;;;1.20;;
69410;SDS011;56604;48.652;9.194;2023-05-10T08:11:57;2.30;;;1.70;;
69410;SDS011;56604;48.652;9.194;2023-05-10T08:14:24;2.73;;;1.20;;
69410;SDS011;56604;48.652;9.194;2023-05-10T08:16:49;1.03;;;1.03;;
69410;SDS011;56604;48.652;9.194;2023-05-10T08:19:15;4.00;;;1.07;;
69410;SDS011;56604;48.652;9.194;2023-05-10T08:21:43;4.30;;;1.30;;
69410;SDS011;56604;48.652;9.194;2023-05-10T08:24:09;0.77;;;0.77;;
69410;SDS011;56604;48.652;9.194;2023-05-10T08:26:35;1.60;;;0.80;;
69410;SDS011;56604;48.652;9.194;2023-05-10T08:29:00;0.87;;;0.87;;
69410;SDS011;56604;48.652;9.194;2023-05-10T08:31:26;0.90;;;0.90;;
69410;SDS011;56604;48.652;9.194;2023-05-10T08:33:51;7.63;;;0.93;;
69410;SDS011;56604;48.652;9.194;2023-05-10T08:36:17;8.47;;;1.10;;
69410;SDS011;56604;48.652;9.194;2023-05-10T08:38:46;2.73;;;1.30;;
69410;SDS011;56604;48.652;9.194;2023-05-10T08:41:13;3.80;;;1.17;;
69410;SDS011;56604;48.652;9.194;2023-05-10T08:43:39;8.20;;;1.93;;
69410;SDS011;56604;48.652;9.194;2023-05-10T08:46:06;1.07;;;1.00;;
69410;SDS011;56604;48.652;9.194;2023-05-10T08:48:34;7.97;;;1.07;;
69410;SDS011;56604;48.652;9.194;2023-05-10T08:51:00;0.90;;;0.90;;
69410;SDS011;56604;48.652;9.194;2023-05-10T08:53:28;1.30;;;1.20;;
69410;SDS011;56604;48.652;9.194;2023-05-10T08:55:57;3.60;;;0.83;;
69410;SDS011;56604;48.652;9.194;2023-05-10T08:58:23;0.80;;;0.80;;
69410;SDS011;56604;48.652;9.194;2023-05-10T09:00:49;3.17;;;1.03;;
69410;SDS011;56604;48.652;9.194;2023-05-10T09:03:17;2.60;;;0.73;;
69410;SDS011;56604;48.652;9.194;2023-05-10T09:05:43;3.50;;;0.70;;
69410;SDS011;56604;48.652;9.194;2023-05-10T09:08:09;2.97;;;0.80;;
69410;SDS011;56604;48.652;9.194;2023-05-10T09:10:36;2.00;;;0.60;;
69410;SDS011;56604;48.652;9.194;2023-05-10T09:13:03;0.70;;;0.70;;
69410;SDS011;56604;48.652;9.194;2023-05-10T09:15:29;0.60;;;0.60;;
69410;SDS011;56604;48.652;9.194;2023-05-10T09:17:55;1.70;;;0.80;;
69410;SDS011;56604;48.652;9.194;2023-05-10T09:20:22;0.70;;;0.70;;
69410;SDS011;56604;48.652;9.194;2023-05-10T09:22:49;1.17;;;0.63;;
69410;SDS011;56604;48.652;9.194;2023-05-10T09:25:15;3.60;;;0.80;;
69410;SDS011;56604;48.652;9.194;2023-05-10T09:27:41;0.60;;;0.60;;
69410;SDS011;56604;48.652;9.194;2023-05-10T09:30:10;0.73;;;0.73;;
69410;SDS011;56604;48.652;9.194;2023-05-10T09:32:41;0.60;;;0.60;;
69410;SDS011;56604;48.652;9.194;2023-05-10T09:35:11;5.13;;;0.60;;
69410;SDS011;56604;48.652;9.194;2023-05-10T09:37:42;0.73;;;0.70;;
69410;SDS011;56604;48.652;9.194;2023-05-10T09:40:13;0.60;;;0.60;;
69410;SDS011;56604;48.652;9.194;2023-05-10T09:45:26;1.13;;;0.97;;
69410;SDS011;56604;48.652;9.194;2023-05-10T09:47:52;0.80;;;0.70;;
69410;SDS011;56604;48.652;9.194;2023-05-10T09:50:19;0.80;;;0.80;;
69410;SDS011;56604;48.652;9.194;2023-05-10T09:52:48;0.93;;;0.80;;
69410;SDS011;56604;48.652;9.194;2023-05-10T09:55:22;0.50;;;0.50;;
69410;SDS011;56604;48.652;9.194;2023-05-10T09:57:58;1.40;;;0.63;;
69410;SDS011;56604;48.652;9.194;2023-05-10T10:00:24;1.03;;;0.63;;
69410;SDS011;56604;48.652;9.194;2023-05-10T10:02:55;1.43;;;0.70;;
69410;SDS011;56604;48.652;9.194;2023-05-10T10:05:32;5.03;;;0.80;;
69410;SDS011;56604;48.652;9.194;2023-05-10T10:07:59;4.50;;;0.63;;
69410;SDS011;56604;48.652;9.194;2023-05-10T10:10:26;1.13;;;0.60;;
69410;SDS011;56604;48.652;9.194;2023-05-10T10:12:52;1.10;;;0.70;;
69410;SDS011;56604;48.652;9.194;2023-05-10T10:15:18;0.70;;;0.70;;
69410;SDS011;56604;48.652;9.194;2023-05-10T10:17:44;3.40;;;0.90;;
69410;SDS011;56604;48.652;9.194;2023-05-10T10:20:10;0.93;;;0.77;;
69410;SDS011;56604;48.652;9.194;2023-05-10T10:22:36;0.97;;;0.60;;
69410;SDS011;56604;48.652;9.194;2023-05-10T10:25:02;0.70;;;0.70;;
69410;SDS011;56604;48.652;9.194;2023-05-10T10:35:59;3.10;;;0.70;;
69410;SDS011;56604;48.652;9.194;2023-05-10T10:38:25;1.97;;;0.73;;
69410;SDS011;56604;48.652;9.194;2023-05-10T10:41:12;2.20;;;0.80;;
69410;SDS011;56604;48.652;9.194;2023-05-10T10:47:04;1.00;;;1.00;;
69410;SDS011;56604;48.652;9.194;2023-05-10T11:02:52;5.70;;;0.63;;
69410;SDS011;56604;48.652;9.194;2023-05-10T11:07:55;2.40;;;0.70;;
69410;SDS011;56604;48.652;9.194;2023-05-10T11:10:22;0.60;;;0.60;;
69410;SDS011;56604;48.652;9.194;2023-05-10T11:12:53;2.73;;;0.60;;
69410;SDS011;56604;48.652;9.194;2023-05-10T11:17:58;1.63;;;0.80;;
69410;SDS011;56604;48.652;9.194;2023-05-10T11:20:26;5.60;;;0.83;;
69410;SDS011;56604;48.652;9.194;2023-05-10T11:22:58;1.47;;;0.90;;
69410;SDS011;56604;48.652;9.194;2023-05-10T11:25:40;1.03;;;0.70;;
69410;SDS011;56604;48.652;9.194;2023-05-10T11:28:06;1.20;;;1.10;;
69410;SDS011;56604;48.652;9.194;2023-05-10T11:30:32;2.20;;;1.00;;
69410;SDS011;56604;48.652;9.194;2023-05-10T11:32:57;13.80;;;1.73;;
69410;SDS011;56604;48.652;9.194;2023-05-10T11:35:23;2.60;;;0.93;;
69410;SDS011;56604;48.652;9.194;2023-05-10T11:37:48;2.40;;;0.90;;
69410;SDS011;56604;48.652;9.194;2023-05-10T11:40:13;1.33;;;1.00;;
69410;SDS011;56604;48.652;9.194;2023-05-10T11:42:39;4.63;;;1.00;;
69410;SDS011;56604;48.652;9.194;2023-05-10T11:45:05;2.10;;;0.87;;
69410;SDS011;56604;48.652;9.194;2023-05-10T11:47:31;2.40;;;0.90;;
69410;SDS011;56604;48.652;9.194;2023-05-10T11:49:56;4.33;;;0.93;;
69410;SDS011;56604;48.652;9.194;2023-05-10T11:52:22;2.50;;;1.00;;
69410;SDS011;56604;48.652;9.194;2023-05-10T11:54:51;3.63;;;0.80;;
69410;SDS011;56604;48.652;9.194;2023-05-10T11:57:20;4.03;;;1.10;;
69410;SDS011;56604;48.652;9.194;2023-05-10T11:59:53;10.40;;;0.90;;
69410;SDS011;56604;48.652;9.194;2023-05-10T12:02:20;4.73;;;1.00;;
69410;SDS011;56604;48.652;9.194;2023-05-10T12:04:45;1.60;;;1.20;;
69410;SDS011;56604;48.652;9.194;2023-05-10T12:07:11;0.90;;;0.90;;
69410;SDS011;56604;48.652;9.194;2023-05-10T12:09:36;3.13;;;1.10;;
69410;SDS011;56604;48.652;9.194;2023-05-10T12:12:02;2.03;;;0.73;;
69410;SDS011;56604;48.652;9.194;2023-05-10T12:14:27;1.27;;;0.90;;
69410;SDS011;56604;48.652;9.194;2023-05-10T12:16:53;1.00;;;1.00;;
69410;SDS011;56604;48.652;9.194;2023-05-10T12:19:21;1.00;;;0.90;;
69410;SDS011;56604;48.652;9.194;2023-05-10T12:21:47;3.30;;;1.07;;
69410;SDS011;56604;48.652;9.194;2023-05-10T12:24:13;0.90;;;0.90;;
69410;SDS011;56604;48.652;9.194;2023-05-10T12:26:41;1.00;;;0.90;;
69410;SDS011;56604;48.652;9.194;2023-05-10T12:29:16;2.80;;;1.30;;
69410;SDS011;56604;48.652;9.194;2023-05-10T12:31:50;1.60;;;0.97;;
69410;SDS011;56604;48.652;9.194;2023-05-10T12:34:25;4.00;;;0.80;;
69410;SDS011;56604;48.652;9.194;2023-05-10T12:37:01;0.83;;;0.80;;
69410;SDS011;56604;48.652;9.194;2023-05-10T12:39:40;2.10;;;0.90;;
69410;SDS011;56604;48.652;9.194;2023-05-10T12:42:08;2.60;;;1.07;;
69410;SDS011;56604;48.652;9.194;2023-05-10T12:44:33;1.10;;;1.10;;
69410;SDS011;56604;48.652;9.194;2023-05-10T12:46:59;1.43;;;1.10;;
69410;SDS011;56604;48.652;9.194;2023-05-10T12:49:24;1.10;;;1.00;;
69410;SDS011;56604;48.652;9.194;2023-05-10T12:51:49;6.07;;;1.13;;
69410;SDS011;56604;48.652;9.194;2023-05-10T12:54:15;3.73;;;1.10;;
69410;SDS011;56604;48.652;9.194;2023-05-10T12:56:40;2.40;;;1.50;;
69410;SDS011;56604;48.652;9.194;2023-05-10T12:59:07;2.90;;;1.70;;
69410;SDS011;56604;48.652;9.194;2023-05-10T13:01:32;7.40;;;1.70;;
69410;SDS011;56604;48.652;9.194;2023-05-10T13:03:58;5.07;;;1.30;;
69410;SDS011;56604;48.652;9.194;2023-05-10T13:06:24;3.03;;;1.00;;
69410;SDS011;56604;48.652;9.194;2023-05-10T13:08:50;1.10;;;1.00;;
69410;SDS011;56604;48.652;9.194;2023-05-10T13:11:16;3.70;;;1.20;;
69410;SDS011;56604;48.652;9.194;2023-05-10T13:13:42;1.27;;;1.10;;
69410;SDS011;56604;48.652;9.194;2023-05-10T13:16:07;1.00;;;1.00;;
69410;SDS011;56604;48.652;9.194;2023-05-10T13:18:32;2.17;;;0.93;;
69410;SDS011;56604;48.652;9.194;2023-05-10T13:20:58;1.20;;;1.10;;
69410;SDS011;56604;48.652;9.194;2023-05-10T13:23:23;0.77;;;0.77;;
69410;SDS011;56604;48.652;9.194;2023-05-10T13:25:49;1.10;;;0.90;;
69410;SDS011;56604;48.652;9.194;2023-05-10T13:28:14;1.23;;;1.00;;
69410;SDS011;56604;48.652;9.194;2023-05-10T13:30:40;0.93;;;0.93;;
69410;SDS011;56604;48.652;9.194;2023-05-10T13:33:05;5.53;;;1.43;;
69410;SDS011;56604;48.652;9.194;2023-05-10T13:35:31;2.93;;;1.30;;
69410;SDS011;56604;48.652;9.194;2023-05-10T13:37:56;2.23;;;0.93;;
69410;SDS011;56604;48.652;9.194;2023-05-10T13:40:22;2.93;;;1.33;;
69410;SDS011;56604;48.652;9.194;2023-05-10T13:42:48;1.00;;;0.90;;
69410;SDS011;56604;48.652;9.194;2023-05-10T13:45:13;5.43;;;0.90;;
69410;SDS011;56604;48.652;9.194;2023-05-10T13:47:38;8.43;;;1.40;;
69410;SDS011;56604;48.652;9.194;2023-05-10T13:50:04;8.70;;;1.20;;
69410;SDS011;56604;48.652;9.194;2023-05-10T13:52:29;0.97;;;0.97;;
69410;SDS011;56604;48.652;9.194;2023-05-10T13:54:55;2.83;;;0.80;;
69410;SDS011;56604;48.652;9.194;2023-05-10T13:57:20;1.43;;;0.97;;
69410;SDS011;56604;48.652;9.194;2023-05-10T13:59:46;0.93;;;0.93;;
69410;SDS011;56604;48.652;9.194;2023-05-10T14:02:11;1.37;;;1.10;;
69410;SDS011;56604;48.652;9.194;2023-05-10T14:04:38;1.57;;;1.13;;
69410;SDS011;56604;48.652;9.194;2023-05-10T14:07:03;2.40;;;1.07;;
69410;SDS011;56604;48.652;9.194;2023-05-10T14:09:29;1.40;;;1.30;;
69410;SDS011;56604;48.652;9.194;2023-05-10T14:11:55;2.33;;;1.17;;
69410;SDS011;56604;48.652;9.194;2023-05-10T14:14:20;4.33;;;1.00;;
69410;SDS011;56604;48.652;9.194;2023-05-10T14:16:46;1.23;;;1.10;;
69410;SDS011;56604;48.652;9.194;2023-05-10T14:19:11;6.23;;;1.00;;
69410;SDS011;56604;48.652;9.194;2023-05-10T14:21:37;4.23;;;0.80;;
69410;SDS011;56604;48.652;9.194;2023-05-10T14:24:03;3.40;;;1.47;;
69410;SDS011;56604;48.652;9.194;2023-05-10T14:26:28;2.93;;;1.07;;
69410;SDS011;56604;48.652;9.194;2023-05-10T14:28:54;2.70;;;0.93;;
69410;SDS011;56604;48.652;9.194;2023-05-10T14:31:19;1.53;;;0.83;;
69410;SDS011;56604;48.652;9.194;2023-05-10T14:33:45;0.90;;;0.90;;
69410;SDS011;56604;48.652;9.194;2023-05-10T14:36:11;4.93;;;1.27;;
69410;SDS011;56604;48.652;9.194;2023-05-10T14:38:37;3.93;;;1.20;;
69410;SDS011;56604;48.652;9.194;2023-05-10T14:41:02;2.80;;;1.13;;
69410;SDS011;56604;48.652;9.194;2023-05-10T14:43:28;2.60;;;1.00;;
69410;SDS011;56604;48.652;9.194;2023-05-10T14:45:53;3.50;;;0.97;;
69410;SDS011;56604;48.652;9.194;2023-05-10T14:48:19;2.00;;;0.90;;
69410;SDS011;56604;48.652;9.194;2023-05-10T14:50:45;1.77;;;1.20;;
69410;SDS011;56604;48.652;9.194;2023-05-10T14:53:10;2.23;;;0.87;;
69410;SDS011;56604;48.652;9.194;2023-05-10T14:55:36;1.10;;;1.00;;
69410;SDS011;56604;48.652;9.194;2023-05-10T14:58:02;2.93;;;1.50;;
69410;SDS011;56604;48.652;9.194;2023-05-10T15:00:28;6.53;;;1.10;;
69410;SDS011;56604;48.652;9.194;2023-05-10T15:02:54;4.00;;;0.90;;
69410;SDS011;56604;48.652;9.194;2023-05-10T15:05:19;0.90;;;0.90;;
69410;SDS011;56604;48.652;9.194;2023-05-10T15:07:44;6.20;;;1.13;;
69410;SDS011;56604;48.652;9.194;2023-05-10T15:10:10;1.27;;;1.03;;
69410;SDS011;56604;48.652;9.194;2023-05-10T15:12:36;1.20;;;1.00;;
69410;SDS011;56604;48.652;9.194;2023-05-10T15:15:01;5.90;;;1.67;;
69410;SDS011;56604;48.652;9.194;2023-05-10T15:17:27;0.90;;;0.90;;
69410;SDS011;56604;48.652;9.194;2023-05-10T15:19:52;1.00;;;0.90;;
69410;SDS011;56604;48.652;9.194;2023-05-10T15:22:18;2.40;;;1.00;;
69410;SDS011;56604;48.652;9.194;2023-05-10T15:24:43;2.10;;;0.90;;
69410;SDS011;56604;48.652;9.194;2023-05-10T15:27:09;1.00;;;1.00;;
69410;SDS011;56604;48.652;9.194;2023-05-10T15:29:34;2.13;;;0.90;;
69410;SDS011;56604;48.652;9.194;2023-05-10T15:32:00;0.93;;;0.93;;